Craig, MO (64437)

1:14 PM CDT on September 21, 2014 (GMT -0500)
Brenner | Change Station
CLOSE
Current Station
Airport
Location: Falls City,
Elevation: 984 ft
Nearby Weather Stations

Elev 984 ft 40.08 °N, 95.59 °W | Updated 21 minutes ago

Clear
Clear
73 °F
Feels Like 73 °F
N
16
Wind Variable Wind from NNW
Gusts 28 mph

Today
High -- | Low -- °F
--% Chance of Precip.
Yesterday
High -- | Low -- °F
Precip. -- in
7:08 AM 7:20 PM
Waning Crescent, 6% visible
Pressure 30.18 in
Visibility 10.0 miles
Clouds Clear
Dew Point 46 °F
Humidity 38%
Rainfall 0.00 in
Snow Depth Not available.
UV 8 out of 12
Pollen 5.70 out of 12
Air Quality Not available.
Flu Activity Not available.
METAR KFNB 211753Z AUTO 33014G24KT 10SM CLR 23/08 A3020 RMK AO2 SLP220 T02280078 10228 20128 50003

More Conditions Fewer Conditions

Pressure 30.18 in
Visibility 10.0 miles
Clouds Clear
Dew Point 46 °F
Humidity 38%
Rainfall 0.00 in
Snow Depth Not available.
UV 8 out of 12
Pollen 5.70 out of 12
Air Quality Not available.
Flu Activity Not available.
METAR KFNB 211753Z AUTO 33014G24KT 10SM CLR 23/08 A3020 RMK AO2 SLP220 T02280078 10228 20128 50003

More Conditions Fewer Conditions

10-Day Weather Forecast

Almanac

Astronomy

Sep. 21, 2014 Rise Set
Actual Time 7:08 AM CDT 7:20 PM CDT
Civil Twilight 6:40 AM CDT 7:47 PM CDT
Nautical Twilight 6:09 AM CDT 8:18 PM CDT
Astronomical Twilight 5:36 AM CDT 8:51 PM CDT
Moon 4:42 AM CDT 5:56 PM CDT
Length of Visible Light 13h 06m
Length of Day
12h 12m
Tomorrow will be 2m 38s shorter.
Waning Crescent, 6% of the Moon is Illuminated
Today
Waning Crescent
Sep 24
New
Oct 1
First Quarter
Oct 8
Full
Oct 15
Last Quarter

Today's Extremes

State Highs State Lows

Community

WunderPhotos

Upload Photos

1,755,213 photos uploaded!

WunderBlogs® & News

Nearby

Snow Depth

Station Depth Elevation
No new snow has been reported.

Earthquake Activity

City Distance Mag. Time & Date
No recent earthquake activity has been reported nearby.
Minimum magnitude displayed is 2.5.

Coastal Water Temperatures

Place Temperature
No Stations Reporting

Nearby Weather Stations